Time;durP1;ratioP1;P1;durP2;ratioP2;P2;SDS_P1;SDS_P2;PMS_P1;PMS_P2;Temp;Humidity;BMP_temperature;BMP_pressure;BME280_temperature;BME280_humidity;BME280_pressure;Samples;Min_cycle;Max_cycle;Signal;HPM_P1;HPM_P2
2023/08/28 00:01:32;;;;;;;2.70;1.98;;;12.90;1.00;;;;;;5073185;28;20180;-73
2023/08/28 00:03:57;;;;;;;1.80;1.70;;;12.90;99.90;;;;;;5072870;28;20204;-74
2023/08/28 00:06:23;;;;;;;2.35;1.88;;;12.80;1.00;;;;;;5072539;28;20181;-74
2023/08/28 00:08:48;;;;;;;4.05;1.98;;;13.10;95.70;;;;;;5073082;28;20359;-74
2023/08/28 00:11:14;;;;;;;3.35;2.03;;;12.90;1.00;;;;;;5073023;28;20177;-73
2023/08/28 00:13:39;;;;;;;2.83;1.80;;;13.00;1.00;;;;;;5072878;28;20201;-73
2023/08/28 00:16:05;;;;;;;2.15;1.83;;;13.00;1.00;;;;;;5072747;28;20319;-73
2023/08/28 00:18:31;;;;;;;2.28;1.90;;;13.00;1.00;;;;;;5073314;28;20645;-73
2023/08/28 00:20:56;;;;;;;2.60;1.98;;;12.90;1.00;;;;;;5073045;28;20235;-73
2023/08/28 00:23:22;;;;;;;2.25;1.75;;;12.90;1.00;;;;;;5074522;28;20268;-73
2023/08/28 00:25:47;;;;;;;2.60;2.40;;;12.80;1.00;;;;;;5076140;28;20664;-73
2023/08/28 00:28:13;;;;;;;3.60;1.83;;;12.80;99.90;;;;;;5076674;28;20181;-73
2023/08/28 00:30:39;;;;;;;3.20;1.92;;;12.80;1.00;;;;;;5076779;28;20162;-73
2023/08/28 00:33:04;;;;;;;4.05;2.10;;;12.80;1.00;;;;;;5076386;28;20598;-73
2023/08/28 00:35:30;;;;;;;2.53;2.00;;;12.70;99.90;;;;;;5076192;28;20684;-73
2023/08/28 00:37:55;;;;;;;3.40;2.40;;;12.80;1.00;;;;;;5076173;28;20647;-73
2023/08/28 00:40:21;;;;;;;6.25;2.50;;;12.80;99.90;;;;;;5076479;28;20189;-73
2023/08/28 00:42:47;;;;;;;3.63;2.22;;;13.10;99.90;;;;;;5076362;28;20182;-73
2023/08/28 00:45:12;;;;;;;2.30;2.10;;;12.80;99.90;;;;;;5075770;28;20616;-74
2023/08/28 00:47:39;;;;;;;2.55;1.95;;;12.80;99.90;;;;;;5076260;28;20170;-74
2023/08/28 00:50:05;;;;;;;2.80;2.08;;;12.80;99.90;;;;;;5076230;28;20551;-73
2023/08/28 00:52:31;;;;;;;2.40;2.00;;;12.80;1.00;;;;;;5075973;28;20173;-74
2023/08/28 00:54:57;;;;;;;2.40;2.15;;;12.80;54.30;;;;;;5075677;28;20193;-73
2023/08/28 00:57:24;;;;;;;2.95;2.20;;;13.10;1.00;;;;;;5076165;28;20652;-73
2023/08/28 00:59:49;;;;;;;3.40;2.40;;;12.70;99.90;;;;;;5076097;28;20170;-73
2023/08/28 01:02:15;;;;;;;2.97;2.35;;;12.70;99.90;;;;;;5076004;28;20189;-73
2023/08/28 01:04:41;;;;;;;2.92;2.38;;;12.60;99.90;;;;;;5075802;28;20241;-74
2023/08/28 01:07:22;;;;;;;2.53;2.30;;;12.60;99.90;;;;;;5075585;28;20227;-73
2023/08/28 01:10:17;;;;;;;2.58;2.38;;;12.60;1.00;;;;;;5075968;28;20598;-73
2023/08/28 01:12:50;;;;;;;3.40;2.30;;;12.70;1.00;;;;;;5075877;28;20692;-73
2023/08/28 01:15:21;;;;;;;4.25;2.63;;;12.60;99.90;;;;;;5075224;28;20652;-73
2023/08/28 01:17:54;;;;;;;2.47;2.20;;;12.80;1.00;;;;;;5075736;28;20173;-74
2023/08/28 01:20:21;;;;;;;2.75;2.40;;;12.80;99.90;;;;;;5075728;28;20170;-73
2023/08/28 01:23:06;;;;;;;3.80;2.50;;;12.70;1.00;;;;;;5075693;28;20185;-74
2023/08/28 01:25:32;;;;;;;3.53;3.15;;;12.70;99.90;;;;;;5075101;28;20664;-74
2023/08/28 01:28:02;;;;;;;3.42;3.13;;;12.60;99.90;;;;;;5075444;28;20180;-74
2023/08/28 01:30:28;;;;;;;3.13;2.83;;;12.60;1.00;;;;;;5075546;28;20173;-74
2023/08/28 01:32:53;;;;;;;2.88;2.58;;;12.70;1.00;;;;;;5075218;28;20181;-74
2023/08/28 01:35:28;;;;;;;3.35;2.70;;;12.70;1.00;;;;;;5074525;28;20174;-74
2023/08/28 01:38:17;;;;;;;2.83;2.63;;;12.70;1.00;;;;;;5075233;28;20181;-74
2023/08/28 01:41:12;;;;;;;3.88;2.70;;;12.60;1.00;;;;;;5105850;22;20235;-80
2023/08/28 01:44:07;;;;;;;3.38;3.08;;;12.80;1.00;;;;;;5016852;28;20242;-80
2023/08/28 01:47:33;;;;;;;;;;;;;;;;;;;;;
2023/08/28 01:50:15;;;;;;;4.88;2.83;;;12.70;99.90;;;;;;5015681;28;20691;-81
2023/08/28 01:53:11;;;;;;;4.10;3.00;;;12.50;99.90;;;;;;4998263;28;20736;-80
2023/08/28 01:56:11;;;;;;;3.60;3.00;;;11.70;1.00;;;;;;5014453;28;20180;-82
2023/08/28 01:58:48;;;;;;;3.40;3.10;;;13.40;1.00;;;;;;4915316;29;20210;-81
2023/08/28 02:01:30;;;;;;;;;;;;;;;;;;;;;
2023/08/28 02:04:06;;;;;;;6.10;3.90;;;13.80;1.00;;;;;;4954222;29;20680;-80
2023/08/28 02:06:58;;;;;;;4.05;3.65;;;12.40;1.00;;;;;;4938509;29;20196;-81
2023/08/28 02:09:48;;;;;;;;;;;;;;;;;;;;;
2023/08/28 02:12:54;;;;;;;3.83;3.53;;;12.90;99.90;;;;;;5014842;28;20552;-80
2023/08/28 02:15:58;;;;;;;4.30;3.90;;;12.60;99.90;;;;;;5014410;28;20205;-81
2023/08/28 02:18:35;;;;;;;4.55;3.78;;;11.40;99.90;;;;;;5013965;28;20210;-81
2023/08/28 02:25:20;;;;;;;;;;;;;;;;;;;;;
2023/08/28 02:28:33;;;;;;;4.72;4.20;;;12.70;1.00;;;;;;5015556;28;20175;-83
2023/08/28 02:31:36;;;;;;;4.22;3.83;;;12.30;1.00;;;;;;4997197;28;20188;-80
2023/08/28 02:37:56;;;;;;;4.82;4.32;;;10.70;99.90;;;;;;5006251;28;20188;-80
2023/08/28 02:48:11;;;;;;;4.78;4.38;;;12.40;1.00;;;;;;4914952;29;21025;-83
2023/08/28 02:51:27;;;;;;;4.63;4.22;;;11.50;1.00;;;;;;4885277;29;20189;-81
2023/08/28 02:54:52;;;;;;;5.90;4.85;;;12.40;1.00;;;;;;4935379;29;20657;-81
2023/08/28 02:58:07;;;;;;;4.75;4.35;;;12.70;1.00;;;;;;4907988;29;20278;-80
2023/08/28 03:04:56;;;;;;;;;;;;;;;;;;;;;
2023/08/28 03:07:57;;;;;;;5.15;4.65;;;12.30;1.00;;;;;;5015110;28;20259;-80
2023/08/28 03:11:08;;;;;;;5.00;4.60;;;12.30;1.00;;;;;;5014389;28;20175;-80
2023/08/28 03:13:57;;;;;;;6.05;5.43;;;12.20;99.90;;;;;;5014182;28;20184;-80
2023/08/28 03:17:01;;;;;;;6.03;5.25;;;10.80;99.90;;;;;;4996345;28;20637;-80
2023/08/28 03:23:08;;;;;;;6.13;5.15;;;13.60;1.00;;;;;;4992396;28;20176;-83
2023/08/28 03:28:39;;;;;;;5.97;5.43;;;12.60;1.00;;;;;;5033831;22;20237;-74
2023/08/28 03:31:05;;;;;;;7.10;5.65;;;12.50;1.00;;;;;;5053380;28;20170;-74
2023/08/28 03:33:31;;;;;;;6.28;5.68;;;12.20;1.00;;;;;;5053172;28;20220;-73
2023/08/28 03:35:59;;;;;;;5.97;5.45;;;12.20;1.00;;;;;;5052867;28;20170;-73
2023/08/28 03:38:25;;;;;;;6.75;5.80;;;12.10;1.00;;;;;;5053393;28;20167;-73
2023/08/28 03:40:51;;;;;;;7.03;6.40;;;12.50;1.00;;;;;;5053366;28;20173;-73
2023/08/28 03:43:16;;;;;;;7.13;6.53;;;12.20;68.90;;;;;;5053024;28;20213;-74
2023/08/28 03:45:42;;;;;;;6.50;5.95;;;12.20;1.00;;;;;;5051386;28;20210;-74
2023/08/28 03:48:07;;;;;;;7.45;6.80;;;12.50;99.90;;;;;;5053353;28;20198;-73
2023/08/28 03:50:33;;;;;;;6.68;6.07;;;12.20;1.00;;;;;;5053253;28;20257;-74
2023/08/28 03:53:00;;;;;;;7.50;6.88;;;12.10;99.90;;;;;;5053178;28;20669;-74
2023/08/28 03:55:29;;;;;;;7.97;7.28;;;12.10;99.90;;;;;;5052673;28;20174;-74
2023/08/28 03:58:02;;;;;;;9.05;7.35;;;12.20;21.70;;;;;;5054606;28;20216;-74
2023/08/28 04:00:29;;;;;;;8.45;7.65;;;12.30;40.90;;;;;;5057194;28;20182;-74
2023/08/28 04:02:54;;;;;;;8.43;7.30;;;12.30;99.90;;;;;;5057064;28;20511;-74
2023/08/28 04:05:21;;;;;;;7.95;7.22;;;12.30;99.90;;;;;;5056582;28;20235;-74
2023/08/28 04:07:49;;;;;;;9.23;8.30;;;12.60;99.90;;;;;;5057079;28;20211;-74
2023/08/28 04:10:14;;;;;;;9.35;8.32;;;12.30;1.00;;;;;;5057065;28;20166;-74
2023/08/28 04:12:40;;;;;;;8.70;7.80;;;12.30;99.90;;;;;;5056766;28;20174;-74
2023/08/28 04:15:09;;;;;;;8.48;7.68;;;12.20;1.00;;;;;;5056377;28;20194;-73
2023/08/28 04:17:35;;;;;;;8.40;7.60;;;12.20;1.00;;;;;;5056855;28;20654;-74
2023/08/28 04:20:14;;;;;;;8.85;7.95;;;12.20;38.80;;;;;;5055610;28;20178;-73
2023/08/28 04:22:41;;;;;;;10.15;8.73;;;12.10;99.90;;;;;;5056633;28;20178;-73
2023/08/28 04:25:08;;;;;;;9.98;8.85;;;12.00;22.40;;;;;;5056004;28;20217;-73
2023/08/28 04:27:34;;;;;;;9.40;8.52;;;12.10;40.90;;;;;;5056616;28;20182;-74
2023/08/28 04:29:59;;;;;;;9.52;8.60;;;12.20;99.90;;;;;;5075128;28;20184;-73
2023/08/28 04:32:25;;;;;;;9.77;8.73;;;12.10;1.00;;;;;;5076599;28;20204;-74
2023/08/28 04:34:50;;;;;;;11.02;9.95;;;12.10;1.00;;;;;;5076091;28;20660;-75
2023/08/28 04:37:16;;;;;;;10.13;9.23;;;12.30;1.00;;;;;;5058517;28;20231;-74
2023/08/28 04:39:43;;;;;;;11.20;10.10;;;12.20;1.00;;;;;;5076908;28;20174;-73
2023/08/28 04:42:09;;;;;;;9.90;9.00;;;12.20;1.00;;;;;;5076450;28;20180;-74
2023/08/28 04:44:35;;;;;;;10.40;9.20;;;12.30;81.60;;;;;;5076139;28;20200;-74
2023/08/28 04:47:01;;;;;;;9.13;8.23;;;12.80;1.00;;;;;;5075395;28;20170;-74
2023/08/28 04:49:27;;;;;;;10.20;9.23;;;12.30;72.40;;;;;;5076351;28;20173;-73
2023/08/28 04:51:52;;;;;;;9.88;8.93;;;12.40;1.00;;;;;;5058333;28;20202;-74
2023/08/28 04:54:18;;;;;;;9.60;8.80;;;12.40;52.40;;;;;;5075885;28;20200;-73
2023/08/28 04:56:43;;;;;;;9.90;8.90;;;12.30;99.90;;;;;;5075523;28;20174;-74
2023/08/28 04:59:09;;;;;;;9.15;8.35;;;12.60;99.90;;;;;;5076286;28;20177;-73
2023/08/28 05:01:35;;;;;;;9.85;8.90;;;12.50;99.90;;;;;;5076117;28;20205;-74
2023/08/28 05:04:00;;;;;;;9.25;8.45;;;12.80;99.90;;;;;;5075904;28;20189;-73
2023/08/28 05:06:26;;;;;;;9.95;9.05;;;12.60;1.00;;;;;;5075435;28;20198;-73
2023/08/28 05:08:51;;;;;;;9.48;8.68;;;12.70;1.00;;;;;;5075002;28;20257;-73
2023/08/28 05:11:17;;;;;;;9.35;8.43;;;12.70;99.90;;;;;;5076014;28;20170;-73
2023/08/28 05:13:43;;;;;;;9.70;8.70;;;12.80;1.00;;;;;;5075862;28;20272;-73
2023/08/28 05:16:08;;;;;;;9.38;8.48;;;12.90;99.90;;;;;;5075214;28;20265;-73
2023/08/28 05:18:35;;;;;;;8.63;7.85;;;13.00;99.90;;;;;;5057851;28;20189;-73
2023/08/28 05:21:01;;;;;;;9.77;8.77;;;13.00;99.90;;;;;;5075798;28;20166;-73
2023/08/28 05:23:26;;;;;;;9.82;8.75;;;13.00;1.00;;;;;;5075338;28;20197;-73
2023/08/28 05:25:52;;;;;;;9.38;8.45;;;13.10;1.00;;;;;;5075024;28;20543;-73
2023/08/28 05:28:18;;;;;;;9.30;8.40;;;13.00;1.00;;;;;;5057642;28;20178;-74
2023/08/28 05:30:44;;;;;;;9.38;8.48;;;13.20;99.90;;;;;;5075610;28;20191;-73
2023/08/28 05:33:09;;;;;;;10.25;9.23;;;13.20;1.00;;;;;;5075465;28;20248;-73
2023/08/28 05:35:35;;;;;;;9.52;8.63;;;13.30;99.90;;;;;;5075013;28;20189;-73
2023/08/28 05:38:01;;;;;;;10.18;8.68;;;13.40;99.90;;;;;;5075387;28;20220;-73
2023/08/28 05:40:26;;;;;;;10.02;9.13;;;13.40;99.90;;;;;;5075367;28;20585;-73
2023/08/28 05:42:52;;;;;;;10.10;9.20;;;13.40;99.90;;;;;;5075650;28;20177;-73
2023/08/28 05:45:18;;;;;;;10.20;9.00;;;13.50;58.60;;;;;;5074782;28;20209;-73
2023/08/28 05:47:44;;;;;;;10.10;9.20;;;13.50;99.90;;;;;;5075124;28;20169;-73
2023/08/28 05:50:09;;;;;;;9.93;8.93;;;13.60;99.90;;;;;;5075299;28;20170;-73
2023/08/28 05:52:36;;;;;;;9.63;8.73;;;13.60;1.00;;;;;;5074796;28;20227;-73
2023/08/28 05:55:04;;;;;;;9.52;8.55;;;13.70;9.40;;;;;;5074467;28;20193;-73
2023/08/28 05:57:29;;;;;;;8.70;7.90;;;13.70;1.00;;;;;;5074958;28;20239;-73
2023/08/28 05:59:55;;;;;;;9.73;8.77;;;13.80;1.00;;;;;;5075079;28;20644;-73
2023/08/28 06:02:20;;;;;;;10.07;9.18;;;13.90;1.00;;;;;;5074915;28;20185;-74
2023/08/28 06:04:52;;;;;;;9.25;8.45;;;13.90;1.00;;;;;;5074300;28;20193;-75
2023/08/28 06:07:17;;;;;;;10.32;9.30;;;13.90;1.00;;;;;;5074690;28;20226;-74
2023/08/28 06:09:43;;;;;;;9.13;8.32;;;13.90;1.00;;;;;;5056901;28;20277;-74
2023/08/28 06:12:09;;;;;;;9.73;8.45;;;13.90;1.00;;;;;;5074671;28;20184;-74
2023/08/28 06:14:36;;;;;;;9.35;8.52;;;13.90;13.40;;;;;;5074511;28;20722;-74
2023/08/28 06:17:03;;;;;;;8.57;7.78;;;14.00;1.00;;;;;;5074035;28;20170;-74
2023/08/28 06:19:29;;;;;;;9.07;8.27;;;14.00;1.00;;;;;;5074469;28;20179;-73
2023/08/28 06:21:54;;;;;;;9.48;8.52;;;14.00;1.00;;;;;;5074495;28;20256;-74
2023/08/28 06:24:20;;;;;;;8.90;8.15;;;14.10;13.40;;;;;;5074198;28;20665;-74
2023/08/28 06:26:46;;;;;;;9.05;8.15;;;14.20;1.00;;;;;;5073902;28;20177;-74
2023/08/28 06:29:11;;;;;;;8.70;7.80;;;14.30;99.90;;;;;;5056428;28;20549;-74
2023/08/28 06:31:37;;;;;;;8.27;7.55;;;14.60;18.20;;;;;;5074328;28;20213;-74
2023/08/28 06:34:02;;;;;;;9.45;7.75;;;15.30;99.90;;;;;;5074040;28;20186;-74
2023/08/28 06:36:28;;;;;;;9.45;7.15;;;15.80;1.00;;;;;;5055658;28;20277;-73
2023/08/28 06:38:54;;;;;;;6.03;5.35;;;16.10;99.90;;;;;;5074333;28;20228;-74
2023/08/28 06:41:19;;;;;;;6.50;5.88;;;17.30;99.90;;;;;;5074127;28;20165;-74
2023/08/28 06:43:47;;;;;;;8.60;4.75;;;19.10;1.00;;;;;;5073839;28;20216;-73
2023/08/28 06:46:13;;;;;;;6.20;4.30;;;21.20;99.90;;;;;;5073428;28;20201;-73
2023/08/28 06:48:39;;;;;;;5.32;3.90;;;22.30;99.90;;;;;;5073962;28;20192;-73
2023/08/28 06:51:04;;;;;;;4.55;3.35;;;23.20;99.90;;;;;;5073970;28;20284;-74
2023/08/28 06:53:30;;;;;;;3.97;3.30;;;24.00;99.90;;;;;;5073660;28;20194;-74
2023/08/28 06:55:56;;;;;;;4.15;2.67;;;24.70;37.00;;;;;;5073250;28;20248;-74
2023/08/28 06:58:22;;;;;;;3.17;2.63;;;24.90;14.80;;;;;;5073961;28;20201;-73
2023/08/28 07:00:48;;;;;;;3.75;2.60;;;24.80;1.00;;;;;;5073829;28;20178;-74
2023/08/28 07:03:13;;;;;;;4.03;2.90;;;24.70;13.60;;;;;;5073561;28;20250;-74
2023/08/28 07:05:39;;;;;;;3.10;2.40;;;24.40;1.00;;;;;;5073028;28;20624;-74
2023/08/28 07:08:05;;;;;;;4.18;2.80;;;24.00;1.00;;;;;;5073861;28;20169;-74
2023/08/28 07:10:31;;;;;;;5.35;3.00;;;22.30;1.00;;;;;;5073776;28;20170;-74
2023/08/28 07:12:57;;;;;;;3.83;2.60;;;20.40;1.00;;;;;;5073408;28;20206;-73
2023/08/28 07:15:23;;;;;;;3.90;3.08;;;19.30;1.00;;;;;;5073339;28;20174;-74
2023/08/28 07:17:48;;;;;;;3.75;3.00;;;18.30;10.20;;;;;;5073582;28;20537;-73
2023/08/28 07:20:14;;;;;;;4.65;3.40;;;17.70;99.90;;;;;;5073571;28;20178;-74
2023/08/28 07:22:40;;;;;;;3.17;2.92;;;17.50;99.90;;;;;;5073383;28;20210;-74
2023/08/28 07:25:07;;;;;;;3.70;2.80;;;17.30;99.90;;;;;;5073104;28;20213;-73
2023/08/28 07:27:32;;;;;;;3.13;2.72;;;17.30;99.90;;;;;;5073433;28;20193;-74
2023/08/28 07:29:58;;;;;;;4.47;3.33;;;17.40;99.90;;;;;;5073357;28;20188;-73
2023/08/28 07:32:24;;;;;;;4.50;2.85;;;17.30;99.90;;;;;;5072810;28;20181;-74
2023/08/28 07:34:49;;;;;;;3.67;3.28;;;17.30;99.90;;;;;;5072797;28;20202;-74
2023/08/28 07:37:15;;;;;;;4.40;4.00;;;17.30;99.90;;;;;;5073527;28;20548;-74
2023/08/28 07:39:40;;;;;;;3.60;3.20;;;17.20;99.90;;;;;;5073472;28;20177;-74
2023/08/28 07:42:06;;;;;;;6.22;3.08;;;17.10;99.90;;;;;;5128594;22;20247;-74
2023/08/28 07:44:32;;;;;;;4.22;3.10;;;17.00;99.90;;;;;;5033167;28;20665;-74
2023/08/28 07:46:57;;;;;;;5.32;3.28;;;17.10;99.90;;;;;;5032769;28;20246;-74
2023/08/28 07:49:23;;;;;;;4.88;3.45;;;17.20;99.90;;;;;;5033282;28;20652;-73
2023/08/28 07:51:49;;;;;;;5.47;3.38;;;17.20;99.90;;;;;;5033290;28;20166;-74
2023/08/28 07:54:14;;;;;;;4.80;3.38;;;17.30;99.90;;;;;;5033092;28;20252;-74
2023/08/28 07:56:40;;;;;;;3.97;2.92;;;17.40;99.90;;;;;;5032683;28;20179;-74
2023/08/28 07:59:05;;;;;;;6.45;3.63;;;17.40;99.90;;;;;;5033357;28;20246;-75
2023/08/28 08:01:31;;;;;;;4.00;3.47;;;17.30;99.90;;;;;;5033174;28;20183;-74
2023/08/28 08:03:57;;;;;;;4.10;3.17;;;17.20;99.90;;;;;;5032913;28;20564;-74
2023/08/28 08:06:23;;;;;;;4.15;2.90;;;17.20;99.90;;;;;;5032665;28;20203;-74
2023/08/28 08:08:49;;;;;;;3.58;2.63;;;17.20;99.90;;;;;;5033145;28;20179;-74
2023/08/28 08:11:15;;;;;;;3.53;3.10;;;17.10;99.90;;;;;;5032917;28;20262;-73
2023/08/28 08:13:41;;;;;;;4.07;3.10;;;17.00;99.90;;;;;;5032853;28;20187;-74
2023/08/28 08:16:06;;;;;;;4.25;2.78;;;17.00;99.90;;;;;;5032470;28;20203;-73
2023/08/28 08:18:32;;;;;;;3.22;2.90;;;17.10;99.90;;;;;;5033097;28;20573;-74
2023/08/28 08:20:58;;;;;;;4.10;2.65;;;17.30;99.90;;;;;;5033077;28;20190;-74
2023/08/28 08:23:23;;;;;;;3.72;2.60;;;17.30;99.90;;;;;;5032791;28;20264;-73
2023/08/28 08:25:52;;;;;;;3.30;2.67;;;17.40;99.90;;;;;;5032349;28;20266;-74
2023/08/28 08:28:17;;;;;;;2.90;2.60;;;17.60;99.90;;;;;;5032991;28;20544;-74
2023/08/28 08:30:43;;;;;;;2.83;2.55;;;17.60;99.90;;;;;;5033056;28;20175;-73
2023/08/28 08:33:09;;;;;;;3.92;2.80;;;17.70;99.90;;;;;;5032796;28;20175;-74
2023/08/28 08:35:35;;;;;;;3.17;2.70;;;17.70;99.90;;;;;;5032542;28;20634;-75
2023/08/28 08:38:01;;;;;;;3.40;3.10;;;17.90;99.90;;;;;;5032899;28;20271;-73
2023/08/28 08:40:27;;;;;;;3.15;2.70;;;18.00;99.90;;;;;;5032929;28;20175;-74
2023/08/28 08:42:56;;;;;;;3.45;2.80;;;18.00;99.90;;;;;;5032806;28;20186;-73
2023/08/28 08:45:28;;;;;;;2.88;2.35;;;18.40;99.90;;;;;;5017621;28;20213;-73
2023/08/28 08:47:54;;;;;;;2.88;2.55;;;18.70;99.90;;;;;;5036300;28;20622;-75
2023/08/28 08:50:22;;;;;;;4.25;2.60;;;18.60;99.90;;;;;;5036458;28;20171;-74
2023/08/28 08:52:49;;;;;;;3.55;2.70;;;18.60;99.90;;;;;;5036185;28;20630;-73
2023/08/28 08:55:32;;;;;;;3.25;2.40;;;18.50;99.90;;;;;;5017938;28;20210;-74
2023/08/28 08:58:02;;;;;;;3.00;2.53;;;18.60;99.90;;;;;;5036083;28;20183;-73
2023/08/28 09:00:28;;;;;;;4.47;2.42;;;18.60;99.90;;;;;;5036345;28;20266;-73
2023/08/28 09:02:56;;;;;;;4.85;2.20;;;18.60;99.90;;;;;;5035894;28;20254;-74
2023/08/28 09:05:22;;;;;;;2.88;2.22;;;18.60;99.90;;;;;;5035596;28;20249;-74
2023/08/28 09:07:49;;;;;;;2.92;1.90;;;18.40;99.40;;;;;;5018225;28;20174;-74
2023/08/28 09:10:15;;;;;;;2.45;2.15;;;18.60;99.90;;;;;;5036008;28;20176;-73
2023/08/28 09:12:42;;;;;;;4.97;2.35;;;18.60;99.90;;;;;;5035719;28;20191;-73
2023/08/28 09:15:10;;;;;;;4.75;2.53;;;18.60;99.90;;;;;;5035358;28;20199;-73
2023/08/28 09:17:40;;;;;;;2.70;2.50;;;18.50;94.40;;;;;;5035818;28;20171;-74
2023/08/28 09:20:17;;;;;;;3.28;2.90;;;18.30;99.90;;;;;;5035839;28;20171;-73
2023/08/28 09:22:47;;;;;;;3.55;2.80;;;18.40;99.90;;;;;;5035683;28;20206;-73
2023/08/28 09:25:15;;;;;;;2.50;2.28;;;18.60;98.60;;;;;;5034982;28;20289;-73
2023/08/28 09:27:45;;;;;;;3.58;2.30;;;18.70;99.90;;;;;;5017803;28;20586;-73
2023/08/28 09:30:26;;;;;;;3.53;2.53;;;18.80;86.50;;;;;;5035681;28;20171;-74
2023/08/28 09:32:51;;;;;;;3.15;2.67;;;18.80;82.20;;;;;;5035474;28;20171;-73
2023/08/28 09:35:20;;;;;;;2.90;2.50;;;19.00;93.60;;;;;;5017195;28;20207;-74
2023/08/28 09:37:56;;;;;;;3.13;2.30;;;19.10;92.70;;;;;;5017663;28;20207;-73
2023/08/28 09:40:28;;;;;;;3.13;2.83;;;19.30;84.60;;;;;;5035543;28;20245;-74
2023/08/28 09:42:53;;;;;;;3.85;3.10;;;19.40;47.30;;;;;;5035194;28;20317;-73
2023/08/28 09:45:19;;;;;;;4.05;3.35;;;19.30;47.00;;;;;;5017027;28;20732;-74
2023/08/28 09:47:45;;;;;;;3.47;2.53;;;19.30;26.70;;;;;;5034964;28;20175;-73
2023/08/28 09:50:10;;;;;;;3.25;2.90;;;19.20;41.00;;;;;;5035309;28;20175;-73
2023/08/28 09:52:36;;;;;;;3.10;2.60;;;19.10;36.40;;;;;;5017371;28;20206;-74
2023/08/28 09:55:05;;;;;;;4.18;2.47;;;19.20;15.10;;;;;;5034246;28;20199;-74
2023/08/28 09:57:31;;;;;;;5.57;5.05;;;19.10;19.50;;;;;;5035103;28;20271;-74
2023/08/28 09:59:58;;;;;;;10.75;9.85;;;19.00;35.30;;;;;;5035082;28;20185;-74
2023/08/28 10:02:25;;;;;;;6.80;6.20;;;19.10;37.90;;;;;;5035233;28;20530;-73
2023/08/28 10:04:52;;;;;;;4.88;4.10;;;19.20;36.70;;;;;;5034420;28;20313;-74
2023/08/28 10:07:22;;;;;;;11.63;10.52;;;19.30;37.50;;;;;;5034973;28;20175;-74
2023/08/28 10:09:51;;;;;;;12.18;10.98;;;19.50;28.80;;;;;;5034995;28;20175;-74
2023/08/28 10:12:17;;;;;;;4.95;4.00;;;19.70;24.30;;;;;;5034786;28;20262;-74
2023/08/28 10:14:45;;;;;;;2.97;2.38;;;19.70;9.40;;;;;;5034385;28;20214;-74
2023/08/28 10:17:14;;;;;;;3.10;2.50;;;19.90;9.30;;;;;;5034501;28;20174;-74
2023/08/28 10:19:55;;;;;;;3.05;2.60;;;19.90;3.70;;;;;;5034770;28;20509;-73
2023/08/28 10:22:21;;;;;;;4.22;2.28;;;19.90;1.30;;;;;;5016948;28;20190;-74
2023/08/28 10:24:48;;;;;;;2.72;2.17;;;19.90;1.00;;;;;;5034229;28;20199;-74
2023/08/28 10:27:16;;;;;;;2.53;2.13;;;19.80;1.00;;;;;;5016726;28;20634;-74
2023/08/28 10:29:45;;;;;;;2.60;2.40;;;19.90;1.00;;;;;;5034484;28;20214;-74
2023/08/28 10:32:11;;;;;;;3.50;2.25;;;20.00;1.00;;;;;;5034571;28;20210;-74
2023/08/28 10:34:40;;;;;;;1.90;1.65;;;20.20;1.00;;;;;;5034466;28;20613;-74
2023/08/28 10:37:09;;;;;;;2.28;1.90;;;20.00;1.00;;;;;;5034091;28;20250;-74
2023/08/28 10:39:39;;;;;;;1.95;1.75;;;19.70;1.00;;;;;;5034797;28;20533;-74
2023/08/28 10:42:06;;;;;;;2.35;1.85;;;19.60;1.00;;;;;;5016316;28;20205;-74
2023/08/28 10:44:33;;;;;;;2.22;1.83;;;19.80;1.00;;;;;;5034140;28;20235;-74
2023/08/28 10:46:59;;;;;;;3.90;2.15;;;20.00;1.00;;;;;;5033693;28;20197;-75
2023/08/28 10:49:24;;;;;;;2.38;1.90;;;20.20;1.00;;;;;;5034330;28;20167;-75
2023/08/28 10:52:09;;;;;;;2.30;2.10;;;20.20;1.00;;;;;;5034163;28;20242;-75
2023/08/28 10:54:39;;;;;;;1.70;1.60;;;20.10;1.00;;;;;;5016087;28;20194;-73
2023/08/28 10:57:15;;;;;;;2.08;1.75;;;20.20;1.00;;;;;;5033516;28;20194;-74
2023/08/28 10:59:45;;;;;;;5.03;2.75;;;20.10;1.00;;;;;;5034002;28;20174;-74
2023/08/28 11:02:11;;;;;;;1.95;1.67;;;20.20;1.00;;;;;;5033883;28;20214;-74
2023/08/28 11:04:39;;;;;;;2.10;1.50;;;19.90;1.00;;;;;;5033725;28;20203;-74
2023/08/28 11:07:09;;;;;;;3.40;1.60;;;19.70;1.00;;;;;;5032820;28;20170;-74
2023/08/28 11:09:36;;;;;;;2.33;1.30;;;19.50;1.00;;;;;;5034446;28;20175;-75
2023/08/28 11:12:01;;;;;;;2.42;1.63;;;19.80;1.00;;;;;;5033954;28;20175;-75
2023/08/28 11:14:38;;;;;;;3.85;1.70;;;19.60;1.00;;;;;;5033667;28;20716;-74
2023/08/28 11:17:07;;;;;;;1.60;1.30;;;19.60;1.00;;;;;;5033164;28;20224;-74
2023/08/28 11:19:53;;;;;;;1.80;1.40;;;19.60;1.00;;;;;;5033640;28;20673;-74
2023/08/28 11:22:33;;;;;;;2.47;1.40;;;19.50;1.00;;;;;;5033389;28;20230;-74
2023/08/28 11:25:00;;;;;;;3.58;1.38;;;19.50;1.00;;;;;;5033009;28;20206;-73
2023/08/28 11:27:42;;;;;;;2.13;1.50;;;19.50;1.00;;;;;;5033556;28;20203;-73
2023/08/28 11:30:09;;;;;;;1.88;1.27;;;19.50;1.00;;;;;;5033462;28;20171;-74
2023/08/28 11:32:36;;;;;;;2.15;1.50;;;19.40;1.00;;;;;;5015725;28;20186;-74
2023/08/28 11:35:08;;;;;;;2.08;1.30;;;19.50;1.00;;;;;;5015229;28;20237;-74
2023/08/28 11:37:39;;;;;;;1.58;1.42;;;19.80;1.00;;;;;;5033567;28;20677;-73
2023/08/28 11:40:06;;;;;;;3.15;1.40;;;20.20;1.00;;;;;;5015716;28;20205;-75
2023/08/28 11:42:35;;;;;;;1.20;1.10;;;20.40;1.00;;;;;;5033108;28;20549;-73
2023/08/28 11:45:02;;;;;;;2.38;1.27;;;20.70;1.00;;;;;;5032779;28;20318;-74
2023/08/28 11:47:29;;;;;;;1.27;1.17;;;20.80;1.00;;;;;;5033672;28;20626;-73
2023/08/28 11:49:55;;;;;;;1.95;1.33;;;20.80;1.00;;;;;;5033503;28;20258;-73
2023/08/28 11:52:22;;;;;;;1.50;1.00;;;20.80;1.00;;;;;;5015526;28;20210;-74
2023/08/28 11:54:49;;;;;;;1.70;1.50;;;20.70;1.00;;;;;;5032839;28;20205;-74
2023/08/28 11:57:19;;;;;;;2.58;1.70;;;20.60;1.00;;;;;;5015222;28;20668;-74
2023/08/28 11:59:48;;;;;;;2.17;1.45;;;20.60;1.00;;;;;;5033309;28;20175;-74
2023/08/28 12:02:15;;;;;;;2.53;1.20;;;20.70;1.00;;;;;;5033143;28;20190;-74
2023/08/28 12:04:41;;;;;;;2.88;1.40;;;20.70;1.00;;;;;;5032897;28;20213;-74
2023/08/28 12:07:41;;;;;;;3.95;1.40;;;20.90;1.00;;;;;;5032873;28;20658;-74
2023/08/28 12:10:08;;;;;;;1.70;1.20;;;20.80;1.00;;;;;;5015472;28;20191;-73
2023/08/28 12:12:35;;;;;;;1.85;1.38;;;21.20;1.00;;;;;;5032941;28;20178;-73
2023/08/28 12:15:00;;;;;;;2.20;1.13;;;21.30;1.00;;;;;;5032182;28;20229;-74
2023/08/28 12:17:26;;;;;;;1.40;1.10;;;21.10;1.00;;;;;;5033290;28;20722;-73
2023/08/28 12:19:53;;;;;;;3.00;1.40;;;20.90;1.00;;;;;;5019123;28;20182;-73
2023/08/28 12:22:21;;;;;;;3.13;1.05;;;20.90;1.00;;;;;;5019126;28;20210;-74
2023/08/28 12:24:49;;;;;;;1.83;0.95;;;20.80;1.00;;;;;;5036324;28;20207;-74
2023/08/28 12:27:16;;;;;;;1.30;0.95;;;21.00;1.00;;;;;;5018965;28;20304;-73
2023/08/28 12:29:42;;;;;;;2.90;1.05;;;21.10;1.00;;;;;;5019019;28;20194;-74
2023/08/28 12:32:14;;;;;;;1.08;0.82;;;21.30;1.00;;;;;;5036628;28;20171;-74
2023/08/28 12:34:40;;;;;;;1.50;1.05;;;21.40;1.00;;;;;;5018759;28;20203;-74
2023/08/28 12:37:11;;;;;;;1.80;1.20;;;21.40;1.00;;;;;;5036118;28;20507;-74
2023/08/28 12:39:50;;;;;;;1.48;1.05;;;21.40;1.00;;;;;;5018924;28;20209;-73
2023/08/28 12:42:21;;;;;;;4.10;1.40;;;21.20;1.00;;;;;;5036402;28;20727;-74
2023/08/28 12:44:47;;;;;;;2.28;1.10;;;21.20;1.00;;;;;;5035988;28;20678;-73
2023/08/28 12:47:16;;;;;;;1.40;0.88;;;21.20;1.00;;;;;;5036045;28;20525;-74
2023/08/28 12:49:41;;;;;;;2.25;1.10;;;21.40;1.00;;;;;;5036533;28;20171;-74
2023/08/28 12:52:08;;;;;;;3.97;1.13;;;21.70;1.00;;;;;;5036399;28;20657;-73
2023/08/28 12:54:35;;;;;;;1.40;0.93;;;21.90;1.00;;;;;;5036130;28;20207;-74
2023/08/28 12:57:01;;;;;;;1.48;1.10;;;21.90;1.00;;;;;;5035691;28;20179;-73
2023/08/28 12:59:26;;;;;;;1.15;0.90;;;21.80;1.00;;;;;;5036255;28;20225;-73
2023/08/28 13:01:53;;;;;;;1.73;1.00;;;21.80;1.00;;;;;;5036117;28;20175;-74
2023/08/28 13:04:19;;;;;;;3.22;1.27;;;21.70;1.00;;;;;;5035690;28;20190;-76
2023/08/28 13:06:44;;;;;;;1.75;0.90;;;21.40;1.00;;;;;;5035559;28;20179;-74
2023/08/28 13:09:10;;;;;;;1.95;1.10;;;21.50;1.00;;;;;;5018318;28;20685;-75
2023/08/28 13:11:36;;;;;;;1.77;0.80;;;21.60;1.00;;;;;;5036046;28;20171;-75
2023/08/28 13:14:03;;;;;;;2.25;0.82;;;21.70;1.00;;;;;;5035798;28;20195;-75
2023/08/28 13:16:30;;;;;;;2.42;0.80;;;21.80;1.00;;;;;;5035295;28;20645;-75
2023/08/28 13:18:55;;;;;;;0.80;0.60;;;21.70;1.00;;;;;;5035945;28;20207;-76
2023/08/28 13:21:21;;;;;;;1.60;1.10;;;21.80;1.00;;;;;;5036156;28;20700;-76
2023/08/28 13:23:47;;;;;;;2.28;1.10;;;21.80;1.00;;;;;;5035643;28;20206;-76
2023/08/28 13:26:13;;;;;;;1.58;0.90;;;22.00;1.00;;;;;;5017177;28;20260;-75
2023/08/28 13:28:38;;;;;;;1.48;0.85;;;21.90;1.00;;;;;;5035898;28;20175;-75
2023/08/28 13:31:04;;;;;;;1.45;0.90;;;21.80;1.00;;;;;;5017212;28;20187;-75
2023/08/28 13:33:30;;;;;;;1.05;0.75;;;21.80;1.00;;;;;;5017717;28;20194;-75
2023/08/28 13:35:55;;;;;;;1.70;1.15;;;21.80;1.00;;;;;;5035018;28;20177;-75
2023/08/28 13:38:21;;;;;;;1.15;0.80;;;21.90;1.00;;;;;;5035592;28;20619;-75